Time;durP1;ratioP1;P1;durP2;ratioP2;P2;SDS_P1;SDS_P2;PMS_P1;PMS_P2;Temp;Humidity;BMP_temperature;BMP_pressure;BME280_temperature;BME280_humidity;BME280_pressure;Samples;Min_cycle;Max_cycle;Signal;HPM_P1;HPM_P2
2021/09/27 00:00:54;;;;;;;12.80;11.43;;;18.70;99.90;;;;;;6155663;23;20916;-84
2021/09/27 00:03:22;;;;;;;14.47;11.50;;;18.70;99.90;;;;;;6151855;23;20441;-86
2021/09/27 00:05:51;;;;;;;12.70;11.50;;;18.70;99.90;;;;;;6150330;23;20662;-87
2021/09/27 00:08:19;;;;;;;11.90;10.70;;;18.60;99.90;;;;;;6153579;23;20422;-84
2021/09/27 00:10:49;;;;;;;13.50;11.50;;;18.60;99.90;;;;;;6151039;23;20453;-84
2021/09/27 00:13:18;;;;;;;11.73;10.63;;;18.50;99.90;;;;;;6150969;23;20402;-84
2021/09/27 00:15:48;;;;;;;12.63;11.47;;;18.40;99.90;;;;;;6153963;23;20862;-83
2021/09/27 00:18:16;;;;;;;12.10;10.90;;;18.50;99.90;;;;;;6159166;23;20434;-84
2021/09/27 00:20:49;;;;;;;13.00;11.10;;;18.50;99.90;;;;;;6160511;23;20417;-86
2021/09/27 00:23:17;;;;;;;12.83;10.90;;;18.80;99.90;;;;;;6155759;23;21009;-85
2021/09/27 00:25:44;;;;;;;11.23;10.23;;;18.70;99.90;;;;;;6151027;23;20445;-84
2021/09/27 00:28:11;;;;;;;10.70;9.70;;;18.60;99.90;;;;;;6146854;23;20697;-87
2021/09/27 00:30:39;;;;;;;11.20;10.10;;;18.70;99.90;;;;;;6163750;23;20613;-84
2021/09/27 00:33:07;;;;;;;13.10;11.27;;;18.80;99.90;;;;;;6175220;23;20406;-86
2021/09/27 00:35:36;;;;;;;12.00;10.77;;;18.80;99.90;;;;;;6177099;23;20418;-85
2021/09/27 00:38:04;;;;;;;12.23;10.90;;;18.70;99.90;;;;;;6174303;23;20416;-84
2021/09/27 00:40:35;;;;;;;12.20;11.10;;;18.90;99.90;;;;;;6163739;23;20497;-85
2021/09/27 00:43:02;;;;;;;11.60;10.33;;;18.90;99.90;;;;;;6159926;23;20401;-85
2021/09/27 00:45:33;;;;;;;13.13;11.83;;;18.90;99.90;;;;;;6157907;23;20809;-84
2021/09/27 00:48:00;;;;;;;11.77;10.43;;;18.80;99.90;;;;;;6163225;23;20858;-86
2021/09/27 00:50:31;;;;;;;12.23;10.93;;;18.80;99.90;;;;;;6157704;23;20425;-84
2021/09/27 00:53:04;;;;;;;11.83;10.63;;;18.60;99.90;;;;;;6162438;23;20492;-85
2021/09/27 00:55:33;;;;;;;12.70;11.40;;;18.60;99.90;;;;;;6157150;23;20398;-84
2021/09/27 00:58:01;;;;;;;12.20;10.80;;;18.60;99.90;;;;;;6135823;23;20402;-86
2021/09/27 01:00:28;;;;;;;11.23;10.07;;;18.60;99.90;;;;;;6137508;23;20500;-86
2021/09/27 01:02:55;;;;;;;12.30;10.47;;;18.60;99.90;;;;;;6138699;23;20425;-87
2021/09/27 01:05:24;;;;;;;11.67;10.47;;;18.60;99.90;;;;;;6161565;23;20442;-84
2021/09/27 01:07:51;;;;;;;10.87;9.87;;;18.50;99.90;;;;;;6160020;23;20505;-83
2021/09/27 01:10:44;;;;;;;10.80;9.70;;;18.50;99.90;;;;;;6135182;23;20428;-84
2021/09/27 01:13:36;;;;;;;12.07;9.97;;;18.50;99.90;;;;;;6146641;23;20442;-83
2021/09/27 01:16:12;;;;;;;10.73;9.63;;;18.60;99.90;;;;;;6145972;23;20375;-84
2021/09/27 01:19:12;;;;;;;12.07;10.87;;;18.80;99.90;;;;;;6172456;23;20453;-84
2021/09/27 01:21:41;;;;;;;12.30;11.10;;;18.80;99.90;;;;;;6143872;23;20410;-84
2021/09/27 01:24:23;;;;;;;12.10;10.80;;;18.60;99.90;;;;;;6167078;23;20400;-86
2021/09/27 01:27:04;;;;;;;11.83;10.70;;;18.50;99.90;;;;;;6165873;23;20457;-84
2021/09/27 01:29:56;;;;;;;13.00;10.63;;;18.40;99.90;;;;;;6136642;23;20694;-86
2021/09/27 01:32:38;;;;;;;11.33;10.27;;;18.50;99.90;;;;;;6162500;23;20410;-87
2021/09/27 01:35:43;;;;;;;12.00;10.87;;;18.50;99.90;;;;;;6135112;23;20545;-85
2021/09/27 01:38:21;;;;;;;12.53;11.30;;;18.60;99.90;;;;;;6085928;23;20444;-84
2021/09/27 01:40:56;;;;;;;11.70;10.50;;;18.50;99.90;;;;;;6160979;23;20416;-84
2021/09/27 01:43:52;;;;;;;10.67;9.67;;;18.40;99.90;;;;;;6161655;23;20394;-86
2021/09/27 01:46:53;;;;;;;13.03;10.63;;;18.40;99.90;;;;;;6029430;23;20476;-85
2021/09/27 01:49:34;;;;;;;10.90;9.97;;;18.60;99.90;;;;;;6136413;23;20422;-85
2021/09/27 01:52:04;;;;;;;10.63;9.60;;;18.70;99.90;;;;;;6161965;23;20405;-83
2021/09/27 01:54:46;;;;;;;12.27;10.97;;;18.80;99.90;;;;;;6162627;23;20405;-86
2021/09/27 01:57:24;;;;;;;11.70;10.50;;;18.80;99.90;;;;;;6163160;23;20402;-85
2021/09/27 02:00:03;;;;;;;11.93;10.73;;;18.80;99.90;;;;;;6156158;23;20441;-84
2021/09/27 02:02:59;;;;;;;11.83;10.63;;;18.70;99.90;;;;;;6158682;23;21387;-83
2021/09/27 02:05:57;;;;;;;10.20;9.30;;;18.50;99.90;;;;;;6161978;23;20452;-84
2021/09/27 02:08:51;;;;;;;11.53;10.43;;;18.40;99.90;;;;;;6162454;23;20468;-84
2021/09/27 02:11:21;;;;;;;13.20;10.47;;;18.50;99.90;;;;;;6161038;23;20421;-84
2021/09/27 02:14:07;;;;;;;11.33;10.23;;;18.60;99.90;;;;;;6159404;23;20414;-85
2021/09/27 02:16:41;;;;;;;13.37;11.40;;;18.60;99.90;;;;;;6157785;23;20487;-86
2021/09/27 02:19:35;;;;;;;15.20;11.30;;;18.70;99.90;;;;;;6158137;23;20493;-84
2021/09/27 02:22:11;;;;;;;13.43;12.07;;;18.60;99.90;;;;;;6151465;23;20436;-85
2021/09/27 02:25:12;;;;;;;12.37;11.00;;;18.70;99.90;;;;;;6156644;23;20739;-86
2021/09/27 02:27:40;;;;;;;11.57;10.47;;;18.60;99.90;;;;;;6158750;23;20400;-85
2021/09/27 02:30:10;;;;;;;14.33;11.50;;;18.60;99.90;;;;;;6157295;23;20430;-85
2021/09/27 02:32:40;;;;;;;13.30;11.83;;;18.50;99.90;;;;;;6057318;23;20879;-85
2021/09/27 02:35:20;;;;;;;11.97;10.80;;;18.40;99.90;;;;;;6158016;23;21495;-84
2021/09/27 02:37:46;;;;;;;13.13;11.57;;;18.40;99.90;;;;;;6129141;23;20454;-84
2021/09/27 02:40:23;;;;;;;12.00;10.90;;;18.50;99.90;;;;;;6152168;23;20414;-86
2021/09/27 02:42:56;;;;;;;12.47;10.93;;;18.50;99.90;;;;;;6125548;23;20409;-84
2021/09/27 02:45:26;;;;;;;12.83;11.53;;;18.40;99.90;;;;;;6129652;23;20911;-83
2021/09/27 02:48:02;;;;;;;12.30;11.10;;;18.30;99.90;;;;;;6171416;23;20406;-84
2021/09/27 02:50:31;;;;;;;11.73;10.50;;;18.30;99.90;;;;;;6154868;23;20519;-83
2021/09/27 02:52:58;;;;;;;11.30;10.30;;;18.30;99.90;;;;;;6135251;23;20420;-84
2021/09/27 02:55:44;;;;;;;12.33;11.07;;;18.10;99.90;;;;;;6150427;23;20517;-84
2021/09/27 02:58:25;;;;;;;11.03;10.03;;;18.20;99.90;;;;;;6160694;23;20464;-85
2021/09/27 03:01:12;;;;;;;12.00;10.60;;;18.10;99.90;;;;;;6163919;23;20397;-86
2021/09/27 03:03:55;;;;;;;13.00;10.30;;;18.10;99.90;;;;;;6182450;23;20413;-84
2021/09/27 03:06:55;;;;;;;10.73;9.67;;;18.20;99.90;;;;;;6181076;23;20440;-84
2021/09/27 03:09:46;;;;;;;13.27;10.90;;;18.30;99.90;;;;;;6181049;23;20436;-86
2021/09/27 03:12:45;;;;;;;10.47;9.30;;;18.50;99.90;;;;;;6152261;23;20453;-86
2021/09/27 03:15:36;;;;;;;11.43;10.33;;;18.30;99.90;;;;;;6151606;23;20420;-84
2021/09/27 03:18:17;;;;;;;15.33;11.30;;;18.20;99.90;;;;;;6142398;23;20425;-84
2021/09/27 03:21:02;;;;;;;13.27;10.67;;;18.20;99.90;;;;;;6141691;23;20394;-85
2021/09/27 03:23:38;;;;;;;12.07;10.93;;;18.20;99.90;;;;;;6166347;23;20437;-84
2021/09/27 03:26:56;;;;;;;13.80;10.40;;;18.20;99.90;;;;;;6136920;23;20510;-86
2021/09/27 03:29:29;;;;;;;11.80;10.20;;;18.10;99.90;;;;;;6138618;23;20429;-84
2021/09/27 03:32:11;;;;;;;11.70;10.50;;;18.00;99.90;;;;;;6140668;23;20422;-85
2021/09/27 03:35:11;;;;;;;11.93;10.77;;;18.00;99.90;;;;;;6164417;23;20811;-86
2021/09/27 03:38:06;;;;;;;11.40;10.10;;;17.90;99.90;;;;;;6162871;23;20420;-84
2021/09/27 03:40:50;;;;;;;10.20;9.23;;;17.90;99.90;;;;;;6165251;23;20401;-84
2021/09/27 03:43:32;;;;;;;11.83;9.73;;;17.90;99.90;;;;;;6161242;23;20482;-85
2021/09/27 03:46:17;;;;;;;11.83;10.50;;;17.90;99.90;;;;;;6155824;23;20426;-85
2021/09/27 03:48:58;;;;;;;10.07;8.97;;;17.80;99.90;;;;;;6158777;23;20457;-84
2021/09/27 03:51:44;;;;;;;11.37;10.17;;;17.80;99.90;;;;;;6161503;23;20409;-84
2021/09/27 03:54:17;;;;;;;10.27;9.30;;;17.90;99.90;;;;;;6156190;23;20399;-85
2021/09/27 03:56:51;;;;;;;10.27;9.27;;;17.80;99.90;;;;;;6158634;23;21342;-85
2021/09/27 03:59:32;;;;;;;11.10;9.90;;;17.90;99.90;;;;;;6163111;23;20834;-86
2021/09/27 04:02:22;;;;;;;11.83;8.97;;;17.70;99.90;;;;;;6160682;23;20402;-84
2021/09/27 04:05:17;;;;;;;9.87;8.87;;;17.80;99.90;;;;;;6162937;23;20426;-85
2021/09/27 04:08:06;;;;;;;12.43;10.30;;;17.80;99.90;;;;;;6159130;23;21026;-87
2021/09/27 04:10:42;;;;;;;10.30;9.03;;;17.80;99.90;;;;;;6158019;23;20466;-85
2021/09/27 04:13:19;;;;;;;11.50;10.30;;;17.80;99.90;;;;;;6154484;23;20400;-85
2021/09/27 04:15:58;;;;;;;10.37;9.37;;;17.70;99.90;;;;;;6159771;23;20409;-84
2021/09/27 04:18:40;;;;;;;11.37;10.27;;;17.70;99.90;;;;;;6155629;23;20997;-85
2021/09/27 04:21:40;;;;;;;10.60;9.50;;;17.90;99.90;;;;;;6158640;23;20413;-84
2021/09/27 04:24:14;;;;;;;11.10;10.10;;;17.80;99.90;;;;;;6157376;23;20407;-84
2021/09/27 04:27:17;;;;;;;11.00;10.00;;;17.70;99.90;;;;;;6157754;23;20437;-86
2021/09/27 04:30:10;;;;;;;11.60;9.20;;;17.70;99.90;;;;;;6103448;23;20438;-84
2021/09/27 04:33:15;;;;;;;12.23;10.03;;;17.60;99.90;;;;;;6155625;23;20420;-85
2021/09/27 04:35:48;;;;;;;12.17;10.90;;;17.60;99.90;;;;;;6155345;23;20837;-86
2021/09/27 04:38:17;;;;;;;19.67;13.23;;;17.60;99.90;;;;;;6159190;23;20498;-84
2021/09/27 04:41:03;;;;;;;13.10;9.70;;;17.70;99.90;;;;;;6162309;23;20445;-85
2021/09/27 04:43:46;;;;;;;11.77;10.67;;;17.70;99.90;;;;;;6168339;23;20402;-85
2021/09/27 04:46:39;;;;;;;12.70;10.27;;;17.70;99.90;;;;;;6166134;23;20410;-85
2021/09/27 04:49:36;;;;;;;11.57;10.37;;;17.60;99.90;;;;;;6163115;23;20517;-86
2021/09/27 04:52:22;;;;;;;10.80;9.00;;;17.70;99.90;;;;;;6162006;23;20822;-86
2021/09/27 04:54:54;;;;;;;9.73;8.90;;;17.60;99.90;;;;;;6157953;23;20390;-85
2021/09/27 04:57:55;;;;;;;12.47;10.50;;;17.50;99.90;;;;;;6162763;23;20564;-85
2021/09/27 05:00:47;;;;;;;10.77;9.70;;;17.60;99.90;;;;;;6159000;23;20425;-84
2021/09/27 05:03:38;;;;;;;10.30;9.40;;;17.50;99.90;;;;;;6159526;23;20414;-86
2021/09/27 05:06:26;;;;;;;11.37;9.07;;;17.50;99.90;;;;;;6154940;23;20414;-85
2021/09/27 05:09:23;;;;;;;11.53;10.37;;;17.60;99.90;;;;;;6156915;23;20442;-84
2021/09/27 05:12:09;;;;;;;13.80;10.43;;;17.60;99.90;;;;;;6155095;23;20395;-85
2021/09/27 05:14:42;;;;;;;10.93;9.93;;;17.70;99.90;;;;;;6160211;23;20829;-86
2021/09/27 05:17:33;;;;;;;11.57;9.60;;;17.70;99.90;;;;;;6155413;23;20399;-85
2021/09/27 05:20:09;;;;;;;11.47;10.37;;;17.70;99.90;;;;;;6126387;23;21276;-86
2021/09/27 05:23:13;;;;;;;9.80;8.80;;;17.60;99.90;;;;;;6150064;23;20443;-85
2021/09/27 05:25:56;;;;;;;10.83;9.40;;;17.70;99.90;;;;;;6096710;23;20485;-86
2021/09/27 05:28:37;;;;;;;11.77;9.63;;;17.60;99.90;;;;;;6155955;23;20426;-85
2021/09/27 05:31:25;;;;;;;12.90;9.10;;;17.80;99.90;;;;;;6156306;23;21021;-85
2021/09/27 05:34:22;;;;;;;11.33;9.40;;;17.80;99.90;;;;;;6153004;23;20398;-87
2021/09/27 05:37:42;;;;;;;10.20;9.20;;;17.60;99.90;;;;;;6154844;23;20438;-85
2021/09/27 05:40:35;;;;;;;11.53;10.20;;;17.60;99.90;;;;;;6012972;23;20518;-85
2021/09/27 05:43:13;;;;;;;11.10;10.00;;;17.60;99.90;;;;;;6027896;23;23015;-87
2021/09/27 05:46:38;;;;;;;11.20;10.10;;;17.60;99.90;;;;;;6170191;23;21359;-86
2021/09/27 05:49:33;;;;;;;10.40;9.30;;;17.50;99.90;;;;;;6131493;23;20423;-87
2021/09/27 05:52:25;;;;;;;11.70;10.60;;;17.40;99.90;;;;;;6149769;23;20433;-84
2021/09/27 05:55:21;;;;;;;11.53;10.20;;;17.60;99.90;;;;;;6163712;23;20437;-85
2021/09/27 05:58:18;;;;;;;10.80;8.70;;;17.50;99.90;;;;;;6161935;23;20418;-85
2021/09/27 06:00:54;;;;;;;11.97;9.93;;;17.40;99.90;;;;;;6144655;23;20517;-87
2021/09/27 06:03:35;;;;;;;10.50;9.43;;;17.50;99.90;;;;;;6162357;23;20409;-86
2021/09/27 06:06:24;;;;;;;10.03;9.13;;;17.50;99.90;;;;;;6160449;23;20409;-86
2021/09/27 06:09:35;;;;;;;11.80;10.03;;;17.60;99.90;;;;;;6161994;23;20469;-86
2021/09/27 06:15:52;;;;;;;11.73;9.37;;;17.40;99.90;;;;;;6072731;23;20448;-85
2021/09/27 06:36:31;;;;;;;10.57;9.47;;;18.30;99.90;;;;;;6154805;23;20950;-84
2021/09/27 06:39:06;;;;;;;11.93;9.73;;;18.20;99.90;;;;;;6125325;23;20474;-85
2021/09/27 06:41:36;;;;;;;13.77;10.67;;;18.30;99.90;;;;;;6131231;23;20442;-85
2021/09/27 06:44:04;;;;;;;9.87;8.90;;;18.40;99.90;;;;;;6146079;23;20513;-85
2021/09/27 06:46:31;;;;;;;11.20;10.00;;;18.30;99.90;;;;;;6158068;23;20442;-86
2021/09/27 06:48:58;;;;;;;12.03;9.17;;;18.30;99.90;;;;;;6160362;23;20457;-86
2021/09/27 06:51:25;;;;;;;10.57;9.03;;;18.20;99.90;;;;;;6157145;23;20490;-85
2021/09/27 06:53:52;;;;;;;11.53;10.33;;;18.40;99.90;;;;;;6158537;23;20405;-83
2021/09/27 06:56:29;;;;;;;10.30;9.30;;;18.40;99.90;;;;;;6161146;23;20876;-87
2021/09/27 06:59:02;;;;;;;10.00;9.00;;;18.40;99.90;;;;;;6160978;23;20509;-85
2021/09/27 07:01:38;;;;;;;11.20;10.10;;;18.30;99.90;;;;;;6158573;23;20434;-85
2021/09/27 07:04:05;;;;;;;10.47;9.33;;;18.20;99.90;;;;;;6159424;23;20390;-87
2021/09/27 07:06:32;;;;;;;11.13;9.43;;;18.30;99.90;;;;;;6158795;23;20445;-87
2021/09/27 07:11:42;;;;;;;9.63;8.63;;;20.10;99.90;;;;;;6155195;23;20457;-84
2021/09/27 07:14:10;;;;;;;9.40;8.47;;;21.90;99.90;;;;;;6160287;23;20974;-86
2021/09/27 07:16:37;;;;;;;12.27;8.37;;;23.10;98.50;;;;;;6160594;23;20420;-85
2021/09/27 07:19:06;;;;;;;8.37;7.57;;;23.50;97.00;;;;;;6159425;23;20466;-84
2021/09/27 07:21:34;;;;;;;9.10;8.03;;;23.90;96.00;;;;;;6156880;23;20498;-85
2021/09/27 07:24:01;;;;;;;12.37;7.17;;;24.00;95.30;;;;;;6158099;23;20413;-86
2021/09/27 07:26:28;;;;;;;7.70;7.00;;;24.30;94.60;;;;;;6154795;23;20406;-87
2021/09/27 07:28:56;;;;;;;8.40;7.63;;;24.20;94.70;;;;;;6155630;23;20430;-83
2021/09/27 07:31:30;;;;;;;8.70;7.80;;;24.00;94.60;;;;;;6159297;23;20414;-86
2021/09/27 07:34:03;;;;;;;8.20;7.40;;;24.30;94.70;;;;;;6155334;23;20405;-86
2021/09/27 07:36:32;;;;;;;7.90;7.10;;;24.00;95.00;;;;;;6149088;23;20401;-85
2021/09/27 07:38:59;;;;;;;7.30;6.60;;;24.30;94.80;;;;;;6153414;23;20430;-86
2021/09/27 07:41:26;;;;;;;7.70;6.93;;;25.60;92.60;;;;;;6156247;23;20485;-85
2021/09/27 07:43:54;;;;;;;8.83;6.80;;;25.00;92.40;;;;;;6154091;23;20414;-86
2021/09/27 07:46:27;;;;;;;8.27;7.43;;;24.50;92.90;;;;;;6156872;23;20533;-84
2021/09/27 07:48:54;;;;;;;9.03;8.20;;;24.30;93.70;;;;;;6162054;23;20492;-85
2021/09/27 07:51:21;;;;;;;8.20;7.37;;;23.40;94.50;;;;;;6130739;23;20422;-85
2021/09/27 07:53:58;;;;;;;7.93;7.13;;;22.30;96.80;;;;;;6158702;23;20394;-85
2021/09/27 07:56:31;;;;;;;7.27;6.67;;;21.50;98.70;;;;;;6134772;23;20387;-85
2021/09/27 07:59:00;;;;;;;7.90;7.10;;;21.10;99.90;;;;;;6128267;23;20456;-84
2021/09/27 08:01:28;;;;;;;8.37;7.57;;;21.00;99.90;;;;;;6144915;23;20509;-84
2021/09/27 08:03:55;;;;;;;6.90;6.33;;;21.20;99.90;;;;;;6117732;23;20490;-84
2021/09/27 08:06:21;;;;;;;7.77;7.00;;;21.10;99.90;;;;;;6137974;23;20646;-84
2021/09/27 08:08:49;;;;;;;7.00;6.30;;;21.00;99.90;;;;;;6117451;23;20456;-85
2021/09/27 08:11:42;;;;;;;7.60;6.80;;;20.80;99.90;;;;;;6143551;23;20413;-84
2021/09/27 08:14:11;;;;;;;6.87;6.20;;;20.80;99.90;;;;;;6142284;23;20395;-86
2021/09/27 08:16:41;;;;;;;7.33;6.63;;;20.60;99.90;;;;;;6117888;23;20398;-84
2021/09/27 08:19:07;;;;;;;6.60;5.97;;;20.60;99.90;;;;;;6142665;23;20644;-84
2021/09/27 08:21:34;;;;;;;6.90;6.30;;;20.60;99.90;;;;;;6147064;23;20413;-85
2021/09/27 08:24:03;;;;;;;6.43;5.93;;;20.50;99.90;;;;;;6138376;23;20513;-84
2021/09/27 08:26:30;;;;;;;7.27;6.57;;;20.40;99.90;;;;;;6119684;23;20419;-86
2021/09/27 08:28:57;;;;;;;6.67;5.97;;;20.20;99.90;;;;;;6139438;23;21122;-84
2021/09/27 08:31:24;;;;;;;6.17;5.67;;;20.40;99.90;;;;;;6138067;23;20408;-83
2021/09/27 08:33:52;;;;;;;5.53;5.03;;;20.60;99.90;;;;;;6135513;23;20449;-83
2021/09/27 08:36:23;;;;;;;6.80;6.20;;;20.70;99.90;;;;;;6159025;23;20432;-84
2021/09/27 08:38:50;;;;;;;6.03;5.43;;;20.60;99.90;;;;;;6149311;23;20426;-83
2021/09/27 08:41:47;;;;;;;6.57;6.07;;;20.80;99.90;;;;;;6146110;23;20642;-83
2021/09/27 08:44:32;;;;;;;8.43;4.87;;;20.80;99.90;;;;;;6143686;23;20421;-84
2021/09/27 08:47:14;;;;;;;5.70;5.07;;;20.80;99.90;;;;;;6145787;23;20450;-82
2021/09/27 08:50:07;;;;;;;6.37;4.80;;;21.00;99.90;;;;;;6144043;23;20449;-85
2021/09/27 08:52:38;;;;;;;6.03;5.53;;;20.90;99.90;;;;;;6147080;23;20414;-84
2021/09/27 08:55:09;;;;;;;8.70;5.10;;;20.80;99.90;;;;;;6144908;23;20417;-84
2021/09/27 08:57:47;;;;;;;5.40;4.90;;;20.80;99.90;;;;;;6141970;23;20482;-85
2021/09/27 09:00:46;;;;;;;7.30;5.70;;;20.70;99.90;;;;;;6154624;23;20429;-84
2021/09/27 09:03:32;;;;;;;5.17;4.77;;;20.90;99.90;;;;;;6156397;23;20402;-83
2021/09/27 09:06:14;;;;;;;7.27;5.13;;;20.90;99.90;;;;;;6154201;23;20421;-85
2021/09/27 09:08:45;;;;;;;6.97;5.10;;;21.10;99.90;;;;;;6153961;23;20444;-86
2021/09/27 09:11:32;;;;;;;5.63;5.13;;;21.20;99.90;;;;;;6153542;23;20414;-85
2021/09/27 09:14:12;;;;;;;5.67;5.17;;;21.30;99.90;;;;;;6151552;23;20475;-84
2021/09/27 09:16:40;;;;;;;6.00;5.40;;;21.30;99.90;;;;;;6161927;23;20462;-85
2021/09/27 09:19:12;;;;;;;5.63;5.13;;;21.50;99.90;;;;;;6166915;23;20418;-84
2021/09/27 09:21:44;;;;;;;5.43;4.97;;;21.70;99.90;;;;;;6165964;23;20406;-83
2021/09/27 09:24:19;;;;;;;5.73;5.20;;;21.70;99.90;;;;;;6161581;23;20477;-84
2021/09/27 09:26:50;;;;;;;4.90;4.20;;;21.80;99.90;;;;;;6154398;23;20846;-84
2021/09/27 09:29:24;;;;;;;5.60;5.10;;;21.90;99.90;;;;;;6144722;23;20433;-84
2021/09/27 09:31:55;;;;;;;5.30;4.80;;;21.80;99.90;;;;;;6139934;23;20842;-85
2021/09/27 09:34:27;;;;;;;5.93;5.10;;;21.90;99.90;;;;;;6144161;23;20433;-85
2021/09/27 09:37:00;;;;;;;5.10;4.60;;;21.90;99.80;;;;;;6148135;23;20478;-83
2021/09/27 09:39:31;;;;;;;6.63;4.83;;;22.20;99.20;;;;;;6147532;23;20895;-84
2021/09/27 09:41:59;;;;;;;4.73;4.33;;;22.40;98.80;;;;;;6149203;23;20398;-84
2021/09/27 09:44:39;;;;;;;4.93;4.57;;;22.90;98.00;;;;;;6149964;23;20735;-84
2021/09/27 09:47:20;;;;;;;5.03;4.60;;;23.00;97.40;;;;;;6150007;23;20394;-86
2021/09/27 09:49:59;;;;;;;5.17;4.67;;;22.90;97.60;;;;;;6148493;23;20437;-85
2021/09/27 09:52:45;;;;;;;4.93;4.43;;;22.60;98.00;;;;;;6148205;23;20416;-85
2021/09/27 09:55:20;;;;;;;5.27;4.63;;;22.40;98.60;;;;;;6147321;23;20401;-83
2021/09/27 09:58:34;;;;;;;5.10;4.70;;;22.90;98.10;;;;;;6147293;23;20891;-86
2021/09/27 10:01:13;;;;;;;3.87;3.57;;;23.30;97.30;;;;;;6026054;23;20409;-84
2021/09/27 10:03:45;;;;;;;4.43;3.67;;;23.80;96.30;;;;;;6004990;23;20412;-84
2021/09/27 10:06:43;;;;;;;3.50;3.20;;;23.90;95.20;;;;;;6107326;23;20417;-83
2021/09/27 10:09:27;;;;;;;3.33;3.00;;;23.80;94.80;;;;;;6104783;23;20457;-83
2021/09/27 10:11:58;;;;;;;3.50;3.20;;;23.50;95.10;;;;;;6126717;23;20462;-84
2021/09/27 10:14:35;;;;;;;4.53;2.87;;;23.10;95.00;;;;;;6146236;23;20417;-85
2021/09/27 10:17:37;;;;;;;3.10;2.80;;;22.90;95.30;;;;;;6143267;23;20904;-85
2021/09/27 10:24:35;;;;;;;3.17;2.30;;;22.50;95.20;;;;;;6027112;23;20388;-86
2021/09/27 10:27:36;;;;;;;2.70;2.50;;;22.30;95.60;;;;;;6111578;23;20431;-85
2021/09/27 10:31:18;;;;;;;3.77;2.93;;;22.10;95.80;;;;;;6143218;23;20624;-83
2021/09/27 10:34:12;;;;;;;2.90;2.57;;;22.00;96.00;;;;;;6112998;23;20433;-84
2021/09/27 10:36:56;;;;;;;3.00;2.70;;;22.00;96.00;;;;;;6140356;23;20535;-84
2021/09/27 10:39:24;;;;;;;4.13;2.70;;;22.10;95.90;;;;;;6141332;23;20430;-84
2021/09/27 10:42:02;;;;;;;2.10;1.87;;;22.20;95.90;;;;;;6139190;23;20983;-84
2021/09/27 10:44:39;;;;;;;2.93;2.73;;;22.30;95.60;;;;;;6139619;23;20802;-88
2021/09/27 10:47:13;;;;;;;4.17;2.50;;;22.30;95.60;;;;;;6143360;23;20386;-86
2021/09/27 10:49:51;;;;;;;3.63;2.60;;;22.40;95.20;;;;;;6142665;23;20454;-86
2021/09/27 10:52:22;;;;;;;4.07;2.80;;;22.50;95.20;;;;;;6148376;23;20394;-86
2021/09/27 10:54:59;;;;;;;8.30;3.23;;;22.50;95.20;;;;;;6044696;23;21523;-86
2021/09/27 10:57:41;;;;;;;3.20;2.90;;;22.50;95.10;;;;;;6127185;23;20872;-86
2021/09/27 11:00:34;;;;;;;4.63;3.00;;;22.40;95.10;;;;;;6141299;23;20458;-86
2021/09/27 11:03:24;;;;;;;3.27;2.97;;;22.50;95.00;;;;;;6138116;23;20488;-84
2021/09/27 11:05:58;;;;;;;2.77;2.57;;;22.40;94.80;;;;;;6139596;23;20421;-84
2021/09/27 11:09:03;;;;;;;3.53;3.23;;;22.30;95.00;;;;;;6141536;23;20480;-87
2021/09/27 11:11:30;;;;;;;3.50;2.60;;;22.30;95.00;;;;;;6081640;23;20451;-84
2021/09/27 11:13:59;;;;;;;2.83;2.20;;;22.60;95.00;;;;;;6141219;23;20402;-85
2021/09/27 11:16:35;;;;;;;2.80;2.60;;;22.90;94.60;;;;;;6139394;23;20414;-86
2021/09/27 11:19:32;;;;;;;2.60;2.40;;;23.20;94.00;;;;;;6140963;23;21141;-86
2021/09/27 11:22:14;;;;;;;2.73;2.53;;;23.30;93.70;;;;;;6145486;23;20518;-86
2021/09/27 11:24:44;;;;;;;2.23;2.13;;;23.40;93.00;;;;;;6149453;23;20968;-88
2021/09/27 11:27:16;;;;;;;2.33;2.13;;;23.60;92.60;;;;;;6157478;23;20406;-88
2021/09/27 11:29:57;;;;;;;3.07;2.70;;;23.70;92.40;;;;;;6164300;23;20484;-87
2021/09/27 11:32:29;;;;;;;4.60;2.60;;;23.60;92.40;;;;;;6158167;23;20413;-86
2021/09/27 11:35:33;;;;;;;3.17;2.47;;;23.60;92.40;;;;;;6144410;23;20406;-87
2021/09/27 11:38:06;;;;;;;3.10;2.27;;;23.40;92.80;;;;;;6138604;23;20402;-87
2021/09/27 11:40:39;;;;;;;3.30;3.00;;;23.30;92.90;;;;;;6145105;23;20398;-86
2021/09/27 11:43:21;;;;;;;3.40;2.60;;;23.30;93.00;;;;;;6147473;23;20433;-86
2021/09/27 11:46:25;;;;;;;5.33;2.43;;;23.10;93.40;;;;;;6149690;23;20422;-88
2021/09/27 11:49:03;;;;;;;2.33;2.13;;;23.10;93.70;;;;;;6146197;23;20456;-85
2021/09/27 11:51:41;;;;;;;2.80;2.23;;;23.20;93.30;;;;;;6152797;23;20409;-87
2021/09/27 11:54:14;;;;;;;2.97;2.50;;;23.40;92.80;;;;;;6152771;23;20472;-87
2021/09/27 11:56:53;;;;;;;2.20;2.10;;;23.40;92.70;;;;;;6150247;23;20433;-86
2021/09/27 11:59:30;;;;;;;6.47;2.10;;;22.90;92.90;;;;;;6153759;23;20468;-87
2021/09/27 12:01:57;;;;;;;2.60;1.97;;;22.60;93.60;;;;;;6156473;23;20409;-86
2021/09/27 12:04:45;;;;;;;2.53;2.20;;;22.90;93.20;;;;;;6155288;23;20418;-87
2021/09/27 12:07:15;;;;;;;4.27;2.10;;;22.90;93.70;;;;;;6146770;23;20418;-86
2021/09/27 12:09:53;;;;;;;1.90;1.80;;;23.20;92.90;;;;;;6139600;23;20446;-85
2021/09/27 12:12:29;;;;;;;3.03;2.57;;;23.20;93.00;;;;;;6120824;23;20494;-89
2021/09/27 12:15:01;;;;;;;2.40;2.20;;;23.30;93.40;;;;;;6051017;23;20933;-89
2021/09/27 12:17:34;;;;;;;4.20;2.57;;;23.40;93.40;;;;;;6137226;23;20841;-84
2021/09/27 12:20:09;;;;;;;3.13;2.70;;;24.20;92.30;;;;;;6143667;23;20461;-85
2021/09/27 12:22:47;;;;;;;2.50;2.30;;;24.50;91.50;;;;;;6141379;23;20389;-85
2021/09/27 12:25:22;;;;;;;2.77;2.40;;;24.90;90.50;;;;;;6143134;23;20418;-89
2021/09/27 12:28:01;;;;;;;2.30;2.10;;;24.70;90.30;;;;;;6144042;23;20504;-85
2021/09/27 12:30:32;;;;;;;2.63;2.13;;;24.40;90.70;;;;;;6140691;23;20390;-88
2021/09/27 12:33:04;;;;;;;2.20;2.10;;;24.10;91.10;;;;;;6148516;23;20429;-87
2021/09/27 12:35:38;;;;;;;3.47;2.47;;;23.90;91.50;;;;;;6140914;23;20386;-86
2021/09/27 12:38:05;;;;;;;3.93;2.60;;;23.80;91.80;;;;;;6144956;23;20403;-86
2021/09/27 12:40:53;;;;;;;1.90;1.80;;;24.00;91.50;;;;;;6134785;23;20413;-86
2021/09/27 12:43:29;;;;;;;2.33;2.07;;;24.30;91.30;;;;;;6138656;23;20414;-86
2021/09/27 12:46:00;;;;;;;3.50;2.60;;;24.50;91.00;;;;;;6141525;23;20401;-85
2021/09/27 12:48:29;;;;;;;2.50;2.30;;;24.40;91.00;;;;;;6136252;23;21055;-86
2021/09/27 12:51:10;;;;;;;3.37;2.63;;;24.00;91.20;;;;;;6141023;23;21128;-86
2021/09/27 12:53:57;;;;;;;2.73;2.53;;;23.80;91.40;;;;;;6139223;23;20471;-87
2021/09/27 12:56:29;;;;;;;2.70;2.47;;;23.60;91.60;;;;;;6142002;23;20401;-86
2021/09/27 12:59:00;;;;;;;3.10;2.20;;;23.50;91.80;;;;;;6140346;23;20441;-86
2021/09/27 13:01:29;;;;;;;5.40;3.40;;;23.50;92.00;;;;;;6142313;23;20405;-86
2021/09/27 13:04:07;;;;;;;3.30;2.97;;;23.50;91.90;;;;;;6142976;23;20453;-86
2021/09/27 13:06:53;;;;;;;4.87;4.10;;;23.40;92.10;;;;;;6146288;23;20770;-86
2021/09/27 13:09:24;;;;;;;3.47;3.17;;;23.20;92.20;;;;;;6146210;23;20456;-86
2021/09/27 13:12:15;;;;;;;8.07;6.63;;;23.20;92.60;;;;;;6139477;23;20441;-85
2021/09/27 13:14:50;;;;;;;3.10;2.60;;;23.30;92.30;;;;;;6143625;23;20957;-84
2021/09/27 13:17:24;;;;;;;2.80;2.60;;;23.20;92.60;;;;;;6149729;23;21009;-83
2021/09/27 13:19:54;;;;;;;3.10;2.63;;;23.20;92.50;;;;;;6150216;23;20465;-86
2021/09/27 13:22:33;;;;;;;5.30;4.80;;;23.20;92.60;;;;;;6147152;23;20406;-86
2021/09/27 13:25:17;;;;;;;7.80;3.70;;;23.00;92.90;;;;;;6146358;23;20409;-86
2021/09/27 13:27:56;;;;;;;4.33;2.80;;;23.10;93.10;;;;;;6142785;23;20425;-85
2021/09/27 13:30:27;;;;;;;8.17;7.33;;;23.00;93.20;;;;;;6144082;23;20409;-86
2021/09/27 13:33:12;;;;;;;3.70;3.40;;;22.80;93.30;;;;;;6143708;23;20430;-84
2021/09/27 13:35:56;;;;;;;3.83;3.53;;;22.70;93.60;;;;;;6145328;23;20416;-84
2021/09/27 13:38:36;;;;;;;4.63;3.00;;;22.70;93.70;;;;;;6142229;23;20505;-86
2021/09/27 13:41:10;;;;;;;3.30;2.70;;;22.70;93.90;;;;;;6145874;23;20496;-86
2021/09/27 13:43:55;;;;;;;2.53;2.33;;;22.70;94.10;;;;;;6145092;23;20755;-84
2021/09/27 13:46:28;;;;;;;2.40;2.20;;;22.60;94.80;;;;;;6144948;23;20749;-85
2021/09/27 13:48:55;;;;;;;3.63;3.13;;;22.70;95.20;;;;;;6144986;23;20765;-85
2021/09/27 13:51:26;;;;;;;3.17;2.90;;;22.60;95.50;;;;;;6145362;23;20432;-85
2021/09/27 13:53:56;;;;;;;3.03;2.73;;;22.40;95.90;;;;;;6145805;23;20445;-84
2021/09/27 13:56:31;;;;;;;2.83;2.63;;;22.30;96.00;;;;;;6159414;23;20424;-84
2021/09/27 13:58:59;;;;;;;4.13;3.83;;;22.10;96.20;;;;;;6152714;23;20507;-84
2021/09/27 14:01:26;;;;;;;9.10;5.27;;;22.10;96.30;;;;;;6147378;23;20420;-83
2021/09/27 14:03:53;;;;;;;6.53;5.10;;;22.20;96.80;;;;;;6144249;23;20433;-83
2021/09/27 14:06:22;;;;;;;7.27;4.50;;;22.30;96.80;;;;;;6149333;23;20434;-84